Time;durP1;ratioP1;P1;durP2;ratioP2;P2;SDS_P1;SDS_P2;PMS_P1;PMS_P2;Temp;Humidity;BMP_temperature;BMP_pressure;BME280_temperature;BME280_humidity;BME280_pressure;Samples;Min_cycle;Max_cycle;Signal;HPM_P1;HPM_P2
2021/06/10 00:00:21;;;;;;;9.07;3.97;;;19.50;99.90;;;;;;5023455;28;20501;-74
2021/06/10 00:02:47;;;;;;;7.32;4.80;;;19.50;99.90;;;;;;5023798;28;20034;-74
2021/06/10 00:05:14;;;;;;;11.52;4.13;;;19.50;99.90;;;;;;5023922;28;20045;-74
2021/06/10 00:07:40;;;;;;;7.18;4.18;;;19.50;99.90;;;;;;5038817;28;20080;-73
2021/06/10 00:10:12;;;;;;;8.27;4.45;;;19.50;99.90;;;;;;5024006;28;20488;-74
2021/06/10 00:12:38;;;;;;;8.65;4.43;;;19.50;99.90;;;;;;5024162;28;20030;-73
2021/06/10 00:15:07;;;;;;;7.68;4.32;;;19.40;99.90;;;;;;5024438;28;20054;-73
2021/06/10 00:17:33;;;;;;;11.75;4.72;;;19.30;99.90;;;;;;5039068;28;20040;-74
2021/06/10 00:19:59;;;;;;;8.95;4.45;;;19.20;99.90;;;;;;5039392;28;20049;-74
2021/06/10 00:22:25;;;;;;;7.72;4.05;;;19.20;99.90;;;;;;5023880;28;20054;-75
2021/06/10 00:24:51;;;;;;;6.22;3.53;;;19.20;99.90;;;;;;5024439;28;20057;-73
2021/06/10 00:27:20;;;;;;;6.90;4.07;;;19.20;99.90;;;;;;5023901;28;20533;-73
2021/06/10 00:29:47;;;;;;;4.55;3.28;;;19.20;99.90;;;;;;5023672;28;20018;-73
2021/06/10 00:32:14;;;;;;;9.80;4.20;;;19.20;99.90;;;;;;5023563;28;20948;-73
2021/06/10 00:34:40;;;;;;;7.25;4.18;;;19.10;99.90;;;;;;5023712;28;20101;-73
2021/06/10 00:37:06;;;;;;;7.25;3.67;;;19.10;99.90;;;;;;5023128;28;20025;-74
2021/06/10 00:39:31;;;;;;;9.10;4.32;;;19.10;99.90;;;;;;5056829;28;20021;-74
2021/06/10 00:41:57;;;;;;;7.25;3.88;;;19.00;99.90;;;;;;5057235;28;20080;-74
2021/06/10 00:44:23;;;;;;;7.22;4.32;;;18.90;99.90;;;;;;5043137;28;20036;-74
2021/06/10 00:46:48;;;;;;;7.63;4.10;;;18.90;99.90;;;;;;5043502;28;20034;-73
2021/06/10 00:49:14;;;;;;;5.85;3.55;;;18.90;99.90;;;;;;5043409;28;20038;-73
2021/06/10 00:51:40;;;;;;;7.85;4.05;;;18.90;99.90;;;;;;5042894;28;20074;-73
2021/06/10 00:54:06;;;;;;;13.60;4.15;;;18.90;99.90;;;;;;5058555;28;20079;-73
2021/06/10 00:56:33;;;;;;;6.30;3.80;;;18.90;99.90;;;;;;5043383;28;20030;-74
2021/06/10 00:58:59;;;;;;;5.60;3.28;;;18.80;99.90;;;;;;5043177;28;20036;-73
2021/06/10 01:01:26;;;;;;;9.82;4.47;;;18.80;99.90;;;;;;5043470;28;20017;-74
2021/06/10 01:03:52;;;;;;;9.32;3.78;;;18.70;99.90;;;;;;5043825;28;20048;-74
2021/06/10 01:06:52;;;;;;;5.60;3.75;;;18.60;99.90;;;;;;5043041;28;20018;-74
2021/06/10 01:09:49;;;;;;;6.43;4.07;;;18.70;99.90;;;;;;5041913;28;20045;-73
2021/06/10 01:12:25;;;;;;;10.00;3.60;;;18.60;99.90;;;;;;5058393;28;20029;-73
2021/06/10 01:15:13;;;;;;;6.22;3.53;;;18.60;99.90;;;;;;5043614;28;20188;-73
2021/06/10 01:17:43;;;;;;;6.40;3.95;;;18.50;99.90;;;;;;5044743;28;20029;-73
2021/06/10 01:20:11;;;;;;;4.88;3.20;;;18.40;99.90;;;;;;5046745;28;20035;-74
2021/06/10 01:22:58;;;;;;;5.63;3.33;;;18.40;99.90;;;;;;5046800;28;20025;-73
2021/06/10 01:25:53;;;;;;;6.72;3.75;;;18.30;99.90;;;;;;5046713;28;20065;-74
2021/06/10 01:28:24;;;;;;;6.93;3.65;;;18.20;99.90;;;;;;5046870;28;20033;-75
2021/06/10 01:30:53;;;;;;;10.77;4.28;;;18.20;99.90;;;;;;5047000;28;20033;-73
2021/06/10 01:33:30;;;;;;;7.53;4.18;;;18.10;99.90;;;;;;5044659;28;20458;-73
2021/06/10 01:36:07;;;;;;;9.40;4.25;;;18.00;99.90;;;;;;5061313;28;20038;-74
2021/06/10 01:38:33;;;;;;;7.32;3.63;;;18.00;99.90;;;;;;5062016;28;20029;-74
2021/06/10 01:41:01;;;;;;;5.28;3.20;;;17.90;99.90;;;;;;5044906;28;20036;-74
2021/06/10 01:43:30;;;;;;;11.05;4.70;;;17.90;99.90;;;;;;5046491;28;20064;-73
2021/06/10 01:45:57;;;;;;;8.45;4.18;;;17.80;99.90;;;;;;5046429;28;20032;-74
2021/06/10 01:48:24;;;;;;;8.38;4.72;;;17.80;99.90;;;;;;5046245;28;20060;-74
2021/06/10 01:50:54;;;;;;;10.35;5.07;;;17.70;99.90;;;;;;5046552;28;20030;-73
2021/06/10 01:53:20;;;;;;;9.00;4.88;;;17.70;99.90;;;;;;5046317;28;20045;-73
2021/06/10 01:55:47;;;;;;;10.52;4.75;;;17.70;99.90;;;;;;5045404;28;20033;-74
2021/06/10 01:58:13;;;;;;;11.98;4.57;;;17.70;99.90;;;;;;5044622;28;20032;-74
2021/06/10 02:00:40;;;;;;;7.50;4.35;;;17.60;99.90;;;;;;5045578;28;20026;-73
2021/06/10 02:03:08;;;;;;;8.85;4.15;;;17.60;99.90;;;;;;5043675;28;20044;-73
2021/06/10 02:05:37;;;;;;;10.35;4.65;;;17.60;99.90;;;;;;5044680;28;20378;-74
2021/06/10 02:08:10;;;;;;;7.85;4.30;;;17.60;99.90;;;;;;5045520;28;20470;-73
2021/06/10 02:10:38;;;;;;;9.10;4.80;;;17.50;99.90;;;;;;5045775;28;20025;-73
2021/06/10 02:13:05;;;;;;;7.63;4.45;;;17.50;99.90;;;;;;5045706;28;20032;-74
2021/06/10 02:15:31;;;;;;;6.63;4.65;;;17.40;99.90;;;;;;5045227;28;20030;-75
2021/06/10 02:17:57;;;;;;;7.22;4.78;;;17.40;99.90;;;;;;5045274;28;20025;-74
2021/06/10 02:20:23;;;;;;;6.93;4.05;;;17.40;99.90;;;;;;5045658;28;20033;-74
2021/06/10 02:22:49;;;;;;;11.48;5.72;;;17.30;99.90;;;;;;5060709;28;20026;-73
2021/06/10 02:25:15;;;;;;;7.68;5.10;;;17.40;99.90;;;;;;5045421;28;20081;-73
2021/06/10 02:27:41;;;;;;;8.25;5.30;;;17.30;99.90;;;;;;5045634;28;20084;-73
2021/06/10 02:30:09;;;;;;;8.80;5.00;;;17.20;99.90;;;;;;5045277;28;20028;-73
2021/06/10 02:32:36;;;;;;;9.07;4.68;;;17.20;99.90;;;;;;5060661;28;20424;-73
2021/06/10 02:35:05;;;;;;;6.85;4.50;;;17.20;99.90;;;;;;5045168;28;20036;-74
2021/06/10 02:37:31;;;;;;;6.47;4.82;;;17.20;99.90;;;;;;5045185;28;20068;-74
2021/06/10 02:39:57;;;;;;;15.13;6.35;;;17.20;99.90;;;;;;5045312;28;20029;-74
2021/06/10 02:42:25;;;;;;;8.70;5.63;;;17.20;99.90;;;;;;5044812;28;20017;-74
2021/06/10 02:44:52;;;;;;;10.70;5.45;;;17.20;99.90;;;;;;5044750;28;20058;-73
2021/06/10 02:47:20;;;;;;;11.63;6.10;;;17.10;99.90;;;;;;5045450;28;20025;-74
2021/06/10 02:49:48;;;;;;;11.02;5.80;;;17.00;99.90;;;;;;5044728;28;20051;-73
2021/06/10 02:52:15;;;;;;;10.25;4.88;;;17.10;99.90;;;;;;5044662;28;20076;-74
2021/06/10 02:54:42;;;;;;;9.20;4.68;;;17.00;99.90;;;;;;5044955;28;20030;-74
2021/06/10 02:57:08;;;;;;;10.85;5.43;;;17.00;99.90;;;;;;5044545;28;20040;-73
2021/06/10 02:59:36;;;;;;;12.43;6.13;;;17.00;99.90;;;;;;5043368;28;20484;-73
2021/06/10 03:02:02;;;;;;;10.57;5.65;;;16.90;99.90;;;;;;5044652;28;20056;-73
2021/06/10 03:04:28;;;;;;;10.60;5.57;;;16.90;99.90;;;;;;5044194;28;20098;-73
2021/06/10 03:06:55;;;;;;;9.35;5.35;;;16.90;99.90;;;;;;5044779;28;20040;-74
2021/06/10 03:09:22;;;;;;;11.93;5.20;;;16.80;99.90;;;;;;5045282;28;20080;-73
2021/06/10 03:11:49;;;;;;;8.02;4.50;;;16.70;99.90;;;;;;5043759;28;20791;-73
2021/06/10 03:14:16;;;;;;;11.90;5.68;;;16.70;99.90;;;;;;5044448;28;20061;-73
2021/06/10 03:16:42;;;;;;;16.80;5.50;;;16.60;99.90;;;;;;5044725;28;20025;-74
2021/06/10 03:19:08;;;;;;;7.80;4.45;;;16.60;99.90;;;;;;5044242;28;20363;-73
2021/06/10 03:21:36;;;;;;;12.77;5.40;;;16.60;99.90;;;;;;5042726;28;20117;-74
2021/06/10 03:24:02;;;;;;;9.60;5.10;;;16.50;99.90;;;;;;5044539;28;20037;-75
2021/06/10 03:26:28;;;;;;;11.57;5.57;;;16.50;99.90;;;;;;5043444;28;20048;-74
2021/06/10 03:28:55;;;;;;;9.68;5.70;;;16.50;99.90;;;;;;5044568;28;20029;-74
2021/06/10 03:31:21;;;;;;;15.70;6.47;;;16.50;99.90;;;;;;5044196;28;20030;-73
2021/06/10 03:33:50;;;;;;;11.55;5.47;;;16.40;99.90;;;;;;5044119;28;20126;-73
2021/06/10 03:36:16;;;;;;;12.23;6.28;;;16.40;99.90;;;;;;5044096;28;20018;-73
2021/06/10 03:38:42;;;;;;;12.75;5.95;;;16.50;99.90;;;;;;5059461;28;20097;-73
2021/06/10 03:41:09;;;;;;;14.40;5.82;;;16.50;99.90;;;;;;5043460;28;20025;-73
2021/06/10 03:43:36;;;;;;;10.32;5.53;;;16.50;99.90;;;;;;5043502;28;20037;-73
2021/06/10 03:46:07;;;;;;;13.68;7.18;;;16.50;99.90;;;;;;5043891;28;20094;-74
2021/06/10 03:48:33;;;;;;;14.45;5.45;;;16.50;99.90;;;;;;5044220;28;20025;-74
2021/06/10 03:50:59;;;;;;;10.10;5.47;;;16.50;99.90;;;;;;5043584;28;20091;-73
2021/06/10 03:53:24;;;;;;;11.27;6.25;;;16.50;99.90;;;;;;5044058;28;20489;-74
2021/06/10 03:55:50;;;;;;;13.77;6.43;;;16.50;99.90;;;;;;5043627;28;20032;-74
2021/06/10 03:58:15;;;;;;;11.82;5.28;;;16.50;99.90;;;;;;5044166;28;20029;-73
2021/06/10 04:00:41;;;;;;;12.77;6.07;;;16.50;99.90;;;;;;5043746;28;20032;-73
2021/06/10 04:03:07;;;;;;;13.43;6.45;;;16.50;99.90;;;;;;5043968;28;20033;-73
2021/06/10 04:05:32;;;;;;;13.23;6.05;;;16.50;99.90;;;;;;5043684;28;20030;-74
2021/06/10 04:07:59;;;;;;;14.07;6.20;;;16.50;99.90;;;;;;5043673;28;20021;-73
2021/06/10 04:10:25;;;;;;;12.82;6.78;;;16.50;99.90;;;;;;5044301;28;20021;-74
2021/06/10 04:12:51;;;;;;;11.10;6.32;;;16.50;99.90;;;;;;5044229;28;20036;-73
2021/06/10 04:15:17;;;;;;;9.27;5.22;;;16.60;99.90;;;;;;5043464;28;20076;-73
2021/06/10 04:17:43;;;;;;;16.20;6.95;;;16.60;99.90;;;;;;5043110;28;20049;-73
2021/06/10 04:20:10;;;;;;;12.20;6.65;;;16.60;99.90;;;;;;5043508;28;20045;-73
2021/06/10 04:22:36;;;;;;;11.82;6.13;;;16.60;99.90;;;;;;5043324;28;20362;-73
2021/06/10 04:25:02;;;;;;;10.02;6.00;;;16.60;99.90;;;;;;5043301;28;20048;-74
2021/06/10 04:27:28;;;;;;;10.80;5.82;;;16.60;99.90;;;;;;5043537;28;20025;-73
2021/06/10 04:29:53;;;;;;;15.15;6.50;;;16.60;99.90;;;;;;5043699;28;20040;-74
2021/06/10 04:32:19;;;;;;;9.20;5.05;;;16.60;99.90;;;;;;5044360;28;20468;-73
2021/06/10 04:34:44;;;;;;;10.63;4.82;;;16.70;99.90;;;;;;5043398;28;20037;-73
2021/06/10 04:37:10;;;;;;;15.75;6.32;;;16.70;99.90;;;;;;5041997;28;20033;-73
2021/06/10 04:39:35;;;;;;;10.18;5.18;;;16.70;99.90;;;;;;5043628;28;20024;-73
2021/06/10 04:42:01;;;;;;;13.90;5.70;;;16.70;99.90;;;;;;5043671;28;20036;-73
2021/06/10 04:44:27;;;;;;;9.30;5.65;;;16.70;99.90;;;;;;5059127;28;20076;-73
2021/06/10 04:46:53;;;;;;;10.52;5.95;;;16.70;99.90;;;;;;5042932;28;20056;-73
2021/06/10 04:49:18;;;;;;;13.65;6.63;;;16.80;99.90;;;;;;5043044;28;20025;-73
2021/06/10 04:51:44;;;;;;;12.05;5.85;;;16.70;99.90;;;;;;5058674;28;20144;-73
2021/06/10 04:54:09;;;;;;;10.77;5.40;;;16.80;99.90;;;;;;5046890;28;20028;-73
2021/06/10 04:56:35;;;;;;;9.88;5.97;;;16.80;99.90;;;;;;5046844;28;20097;-73
2021/06/10 04:59:01;;;;;;;13.63;6.75;;;16.80;99.90;;;;;;5047063;28;20025;-73
2021/06/10 05:01:26;;;;;;;12.30;5.80;;;16.80;99.90;;;;;;5047023;28;20060;-73
2021/06/10 05:03:52;;;;;;;15.63;4.85;;;16.80;99.90;;;;;;5046919;28;20069;-73
2021/06/10 05:06:17;;;;;;;10.70;5.82;;;16.80;99.90;;;;;;5046539;28;20098;-73
2021/06/10 05:08:43;;;;;;;12.48;6.38;;;16.90;99.90;;;;;;5047059;28;20033;-73
2021/06/10 05:11:09;;;;;;;10.55;5.95;;;16.90;99.90;;;;;;5046625;28;20033;-72
2021/06/10 05:13:35;;;;;;;9.20;4.93;;;16.90;99.90;;;;;;5046430;28;20522;-73
2021/06/10 05:16:00;;;;;;;8.43;5.28;;;16.90;99.90;;;;;;5046772;28;20029;-73
2021/06/10 05:18:26;;;;;;;13.75;5.63;;;17.00;99.90;;;;;;5046642;28;20056;-74
2021/06/10 05:20:52;;;;;;;25.15;4.97;;;17.00;99.90;;;;;;5045670;28;20025;-73
2021/06/10 05:23:17;;;;;;;7.25;4.78;;;17.10;99.90;;;;;;5046728;28;20486;-73
2021/06/10 05:25:43;;;;;;;7.25;4.30;;;17.30;99.90;;;;;;5046166;28;20056;-73
2021/06/10 05:28:09;;;;;;;7.25;4.13;;;17.20;99.90;;;;;;5045916;28;20025;-73
2021/06/10 05:30:34;;;;;;;10.38;3.85;;;17.30;99.90;;;;;;5046466;28;20056;-73
2021/06/10 05:33:00;;;;;;;8.07;4.22;;;17.40;99.90;;;;;;5046225;28;20034;-72
2021/06/10 05:35:26;;;;;;;9.18;4.75;;;17.40;99.90;;;;;;5046388;28;20052;-73
2021/06/10 05:37:52;;;;;;;7.70;4.45;;;17.50;99.90;;;;;;5044997;28;20025;-72
2021/06/10 05:40:17;;;;;;;6.85;3.95;;;17.50;99.90;;;;;;5046011;28;20029;-72
2021/06/10 05:42:43;;;;;;;8.30;4.05;;;17.60;99.90;;;;;;5046196;28;20033;-73
2021/06/10 05:45:09;;;;;;;7.93;4.07;;;17.70;99.90;;;;;;5044463;28;20485;-73
2021/06/10 05:47:35;;;;;;;5.38;3.20;;;17.70;99.90;;;;;;5045550;28;20026;-73
2021/06/10 05:50:01;;;;;;;6.90;4.38;;;17.80;99.90;;;;;;5045814;28;20040;-73
2021/06/10 05:52:27;;;;;;;6.47;2.95;;;17.80;99.90;;;;;;5045524;28;20054;-73
2021/06/10 05:54:53;;;;;;;7.03;3.72;;;17.80;99.90;;;;;;5045385;28;20036;-74
2021/06/10 05:57:19;;;;;;;7.15;3.72;;;17.80;99.90;;;;;;5033576;28;20064;-74
2021/06/10 05:59:47;;;;;;;8.05;4.07;;;17.90;99.90;;;;;;5033692;28;20021;-73
2021/06/10 06:02:14;;;;;;;9.90;4.22;;;18.00;99.90;;;;;;5028053;28;20022;-73
2021/06/10 06:04:40;;;;;;;9.38;4.60;;;18.00;99.90;;;;;;5025215;28;20034;-73
2021/06/10 06:07:06;;;;;;;8.38;4.35;;;18.10;99.90;;;;;;5041008;28;20115;-74
2021/06/10 06:09:33;;;;;;;6.25;3.97;;;18.10;99.90;;;;;;5026417;28;20034;-73
2021/06/10 06:11:59;;;;;;;9.80;4.32;;;18.10;99.90;;;;;;5026171;28;20022;-74
2021/06/10 06:14:28;;;;;;;7.82;3.80;;;18.20;99.90;;;;;;5025802;28;20029;-74
2021/06/10 06:16:54;;;;;;;8.82;5.30;;;18.20;99.90;;;;;;5025834;28;20489;-74
2021/06/10 06:19:21;;;;;;;8.23;4.72;;;18.30;99.90;;;;;;5025918;28;20030;-74
2021/06/10 06:21:46;;;;;;;7.30;4.05;;;18.20;99.90;;;;;;5025551;28;20037;-73
2021/06/10 06:24:12;;;;;;;7.43;3.85;;;18.40;99.90;;;;;;5040983;28;20061;-73
2021/06/10 06:26:38;;;;;;;7.55;4.80;;;18.40;99.90;;;;;;5025744;28;20033;-75
2021/06/10 06:29:04;;;;;;;8.90;4.82;;;18.40;99.90;;;;;;5025792;28;20037;-73
2021/06/10 06:31:31;;;;;;;10.32;5.28;;;18.50;99.90;;;;;;5025838;28;20081;-74
2021/06/10 06:33:57;;;;;;;6.53;3.75;;;18.50;99.90;;;;;;5031652;28;20021;-74
2021/06/10 06:36:23;;;;;;;5.93;3.10;;;18.60;99.90;;;;;;5041035;28;20029;-75
2021/06/10 06:38:49;;;;;;;12.52;4.55;;;18.60;99.90;;;;;;5045565;28;20060;-74
2021/06/10 06:41:16;;;;;;;12.88;5.10;;;18.70;99.90;;;;;;5044548;28;20025;-74
2021/06/10 06:43:41;;;;;;;10.85;5.85;;;18.80;99.90;;;;;;5045622;28;20033;-75
2021/06/10 06:46:09;;;;;;;8.57;4.65;;;18.90;99.90;;;;;;5043890;28;20048;-76
2021/06/10 06:48:35;;;;;;;9.73;5.80;;;18.90;99.90;;;;;;5045188;28;20030;-75
2021/06/10 06:51:01;;;;;;;8.90;5.40;;;19.00;99.90;;;;;;5034609;28;20034;-78
2021/06/10 06:53:31;;;;;;;6.63;4.57;;;19.00;99.90;;;;;;5038504;28;20064;-75
2021/06/10 06:55:58;;;;;;;8.60;4.60;;;19.00;99.90;;;;;;5033744;28;20026;-75
2021/06/10 06:58:23;;;;;;;9.40;5.00;;;19.00;99.90;;;;;;5025040;28;20382;-76
2021/06/10 07:00:49;;;;;;;12.82;6.07;;;19.00;99.90;;;;;;5026109;28;20048;-74
2021/06/10 07:03:15;;;;;;;10.80;4.85;;;19.10;99.90;;;;;;5043531;28;20042;-74
2021/06/10 07:05:40;;;;;;;8.15;4.78;;;19.10;99.90;;;;;;5044479;28;20029;-75
2021/06/10 07:08:06;;;;;;;15.70;5.63;;;19.20;99.90;;;;;;5059903;28;20033;-76
2021/06/10 07:10:32;;;;;;;11.30;5.68;;;19.30;99.90;;;;;;5044670;28;20025;-75
2021/06/10 07:12:58;;;;;;;8.70;5.38;;;19.40;99.90;;;;;;5044463;28;20032;-75
2021/06/10 07:15:23;;;;;;;9.98;5.82;;;19.40;99.90;;;;;;5043725;28;20432;-75
2021/06/10 07:17:49;;;;;;;18.98;7.13;;;19.50;99.90;;;;;;5045077;28;20038;-75
2021/06/10 07:20:15;;;;;;;10.25;5.40;;;19.60;99.90;;;;;;5043366;28;20025;-74
2021/06/10 07:22:40;;;;;;;11.10;5.53;;;19.70;99.90;;;;;;5044070;28;20032;-74
2021/06/10 07:25:07;;;;;;;12.02;5.75;;;19.80;99.90;;;;;;5043206;28;20100;-75
2021/06/10 07:27:33;;;;;;;12.95;5.88;;;19.90;99.90;;;;;;5044640;28;20034;-74
2021/06/10 07:30:00;;;;;;;12.55;5.88;;;20.00;99.90;;;;;;5043976;28;20021;-76
2021/06/10 07:32:26;;;;;;;10.25;5.63;;;20.10;99.90;;;;;;5044351;28;20025;-75
2021/06/10 07:34:53;;;;;;;13.20;5.88;;;20.20;99.90;;;;;;5042889;28;20029;-75
2021/06/10 07:37:19;;;;;;;9.45;5.32;;;20.30;99.90;;;;;;5043470;28;20425;-75
2021/06/10 07:39:44;;;;;;;9.80;5.30;;;20.40;99.90;;;;;;5044193;28;20029;-73
2021/06/10 07:42:10;;;;;;;12.70;5.68;;;20.50;99.90;;;;;;5041022;28;20037;-72
2021/06/10 07:44:36;;;;;;;11.35;5.38;;;20.60;99.90;;;;;;5042426;28;20042;-73
2021/06/10 07:47:03;;;;;;;15.68;6.57;;;20.70;99.90;;;;;;5043489;28;20030;-73
2021/06/10 07:49:29;;;;;;;10.55;6.10;;;20.70;99.90;;;;;;5043161;28;20033;-75
2021/06/10 07:51:54;;;;;;;14.00;7.28;;;20.80;99.90;;;;;;5043164;28;20045;-70
2021/06/10 07:54:20;;;;;;;14.40;6.15;;;20.90;99.90;;;;;;5044253;28;20082;-73
2021/06/10 07:56:46;;;;;;;14.00;6.95;;;20.90;99.90;;;;;;5043143;28;20036;-73
2021/06/10 07:59:12;;;;;;;15.43;6.15;;;20.90;99.90;;;;;;5042928;28;20025;-74
2021/06/10 08:01:38;;;;;;;9.80;5.68;;;21.00;99.90;;;;;;5043646;28;20029;-73
2021/06/10 08:04:04;;;;;;;13.50;6.07;;;21.10;99.90;;;;;;5043597;28;20033;-71
2021/06/10 08:06:30;;;;;;;7.93;4.75;;;21.10;99.90;;;;;;5043201;28;20041;-74
2021/06/10 08:08:56;;;;;;;12.20;6.05;;;21.20;99.90;;;;;;5043956;28;20040;-76
2021/06/10 08:11:22;;;;;;;14.38;7.10;;;21.30;99.90;;;;;;5044034;28;20048;-73
2021/06/10 08:13:48;;;;;;;10.75;6.07;;;21.40;99.90;;;;;;5043535;28;20045;-73
2021/06/10 08:16:14;;;;;;;8.90;5.00;;;21.50;99.90;;;;;;5043910;28;20029;-73
2021/06/10 08:18:40;;;;;;;10.73;5.55;;;21.60;99.90;;;;;;5043582;28;20367;-73
2021/06/10 08:21:05;;;;;;;13.82;6.38;;;21.70;99.90;;;;;;5041638;28;20057;-74
2021/06/10 08:23:32;;;;;;;10.98;6.03;;;21.80;99.90;;;;;;5057169;28;20128;-74
2021/06/10 08:26:00;;;;;;;12.32;5.95;;;21.90;99.90;;;;;;5041498;28;20093;-73
2021/06/10 08:28:31;;;;;;;15.93;7.25;;;21.90;99.90;;;;;;5045147;28;20020;-75
2021/06/10 08:30:57;;;;;;;9.30;6.00;;;22.00;99.90;;;;;;5027492;28;20036;-73
2021/06/10 08:33:26;;;;;;;10.60;6.40;;;22.10;99.90;;;;;;5042985;28;20045;-74
2021/06/10 08:35:56;;;;;;;12.75;6.32;;;22.10;99.90;;;;;;5047251;28;20503;-73
2021/06/10 08:38:22;;;;;;;13.90;6.55;;;22.20;99.90;;;;;;5046058;28;20458;-73
2021/06/10 08:40:48;;;;;;;10.07;4.97;;;22.20;99.90;;;;;;5046425;28;20034;-73
2021/06/10 08:43:13;;;;;;;11.05;5.82;;;22.30;99.90;;;;;;5029797;28;20037;-73
2021/06/10 08:45:43;;;;;;;13.73;7.13;;;22.40;99.90;;;;;;5031035;28;20096;-73
2021/06/10 08:48:09;;;;;;;12.82;7.43;;;22.50;99.90;;;;;;5046604;28;20021;-74
2021/06/10 08:50:35;;;;;;;14.18;7.63;;;22.50;99.90;;;;;;5033506;28;20034;-74
2021/06/10 08:53:02;;;;;;;12.50;6.82;;;22.60;99.90;;;;;;5025535;28;20113;-74
2021/06/10 08:55:29;;;;;;;11.73;6.15;;;22.60;99.90;;;;;;5027175;28;20029;-75
2021/06/10 08:57:55;;;;;;;14.23;7.68;;;22.70;99.90;;;;;;5027404;28;20538;-70
2021/06/10 09:00:23;;;;;;;13.38;7.22;;;22.70;99.90;;;;;;5042534;28;20026;-73
2021/06/10 09:02:52;;;;;;;13.02;6.40;;;22.90;99.90;;;;;;5027547;28;20073;-73
2021/06/10 09:05:18;;;;;;;16.23;7.43;;;23.00;99.90;;;;;;5027500;28;20049;-75
2021/06/10 09:07:57;;;;;;;16.10;6.72;;;23.10;99.90;;;;;;5043489;28;20036;-74
2021/06/10 09:10:29;;;;;;;13.65;7.13;;;23.30;99.90;;;;;;5046937;28;20037;-73
2021/06/10 09:13:03;;;;;;;12.68;8.27;;;23.30;99.90;;;;;;5047162;28;20117;-76
2021/06/10 09:15:31;;;;;;;;;;;23.40;99.90;;;;;;5041117;28;20462;-72
2021/06/10 09:18:02;;;;;;;9.90;5.97;;;23.50;99.90;;;;;;5032368;28;19976;-72
2021/06/10 09:20:30;;;;;;;12.40;6.35;;;23.60;99.90;;;;;;5032516;28;20025;-74
2021/06/10 09:23:26;;;;;;;15.68;7.55;;;23.70;99.90;;;;;;5033022;28;20029;-75
2021/06/10 09:26:04;;;;;;;12.75;6.10;;;23.60;99.90;;;;;;5046121;28;20034;-73
2021/06/10 09:28:42;;;;;;;16.42;6.45;;;23.60;99.90;;;;;;5033844;28;20018;-76
2021/06/10 09:31:08;;;;;;;13.60;6.75;;;23.80;99.90;;;;;;5047064;28;20042;-76
2021/06/10 09:33:44;;;;;;;10.00;6.10;;;23.90;99.90;;;;;;5044260;28;20030;-73
2021/06/10 09:36:17;;;;;;;15.50;7.72;;;24.10;99.90;;;;;;5038056;28;20040;-74
2021/06/10 09:39:06;;;;;;;11.77;6.70;;;24.20;99.90;;;;;;5033141;28;20030;-73
2021/06/10 09:41:31;;;;;;;15.80;6.70;;;24.30;99.90;;;;;;5026701;28;20026;-73
2021/06/10 09:43:58;;;;;;;13.55;6.88;;;24.30;99.90;;;;;;5026377;28;20049;-74
2021/06/10 09:46:26;;;;;;;11.48;7.05;;;24.30;99.90;;;;;;5025814;28;20494;-74
2021/06/10 09:49:06;;;;;;;14.65;7.60;;;24.20;99.90;;;;;;5026540;28;20058;-74
2021/06/10 09:51:32;;;;;;;13.77;7.95;;;24.30;99.90;;;;;;5040514;28;20037;-74
2021/06/10 09:53:59;;;;;;;14.10;7.65;;;24.40;99.90;;;;;;5041020;28;20125;-74
2021/06/10 09:56:25;;;;;;;13.93;7.45;;;24.50;99.90;;;;;;5026154;28;20049;-76
2021/06/10 09:58:57;;;;;;;16.00;8.27;;;24.50;99.90;;;;;;5030371;28;20505;-74
2021/06/10 10:01:23;;;;;;;18.42;7.28;;;24.60;99.90;;;;;;5035428;28;20064;-75
2021/06/10 10:03:51;;;;;;;17.08;8.35;;;24.60;99.90;;;;;;5033149;28;20042;-73
2021/06/10 10:06:30;;;;;;;16.10;7.75;;;24.50;99.90;;;;;;5046066;28;20029;-71
2021/06/10 10:09:01;;;;;;;14.77;8.48;;;24.60;99.90;;;;;;5044491;28;20028;-72
2021/06/10 10:11:29;;;;;;;14.82;7.25;;;24.60;99.90;;;;;;5033218;28;20383;-74
2021/06/10 10:13:57;;;;;;;13.98;7.55;;;24.70;99.90;;;;;;5032766;28;20094;-74
2021/06/10 10:16:26;;;;;;;11.75;7.68;;;24.80;99.90;;;;;;5044616;28;20040;-72
2021/06/10 10:18:53;;;;;;;15.07;6.50;;;24.70;99.90;;;;;;5044688;28;20120;-72
2021/06/10 10:21:27;;;;;;;16.13;8.77;;;24.60;99.90;;;;;;5044592;28;20033;-73
2021/06/10 10:24:03;;;;;;;12.50;7.82;;;24.70;99.90;;;;;;5045584;28;20045;-71
2021/06/10 10:26:31;;;;;;;16.20;8.30;;;24.80;99.90;;;;;;5045517;28;20052;-71
2021/06/10 10:29:01;;;;;;;16.10;8.50;;;24.80;99.90;;;;;;5044395;28;20028;-76
2021/06/10 10:31:29;;;;;;;13.18;6.88;;;24.60;99.90;;;;;;5045429;28;20037;-77
2021/06/10 10:33:55;;;;;;;9.50;5.75;;;24.30;99.90;;;;;;5044157;28;20101;-75
2021/06/10 10:36:30;;;;;;;13.32;6.72;;;24.40;99.90;;;;;;5044118;28;20127;-75
2021/06/10 10:39:16;;;;;;;7.70;4.50;;;24.50;99.90;;;;;;5045789;28;20029;-72
2021/06/10 10:41:58;;;;;;;9.10;4.60;;;24.70;99.90;;;;;;5044900;28;20033;-71
2021/06/10 10:44:29;;;;;;;12.93;5.85;;;24.90;99.90;;;;;;5045307;28;20033;-75
2021/06/10 10:47:08;;;;;;;9.95;5.90;;;25.10;99.90;;;;;;5044721;28;20034;-72
2021/06/10 10:49:46;;;;;;;11.95;4.70;;;25.30;99.90;;;;;;5045034;28;20393;-72
2021/06/10 10:52:15;;;;;;;9.43;5.30;;;25.40;99.90;;;;;;5043213;28;20065;-72
2021/06/10 10:54:51;;;;;;;13.40;4.80;;;25.60;99.90;;;;;;5044222;28;20508;-72
2021/06/10 10:57:39;;;;;;;10.23;5.30;;;25.80;99.90;;;;;;5043708;28;20152;-71
2021/06/10 11:00:07;;;;;;;8.80;5.50;;;25.90;99.90;;;;;;5044659;28;20018;-72
2021/06/10 11:02:36;;;;;;;6.80;3.03;;;26.10;99.90;;;;;;5044220;28;20025;-72
2021/06/10 11:05:09;;;;;;;5.03;2.90;;;26.30;99.90;;;;;;5044245;28;20033;-73
2021/06/10 11:07:35;;;;;;;5.65;3.47;;;26.40;99.90;;;;;;5059682;28;20041;-73
2021/06/10 11:10:15;;;;;;;5.07;2.92;;;26.60;99.90;;;;;;5042060;28;20029;-74
2021/06/10 11:12:40;;;;;;;4.25;2.60;;;26.70;99.90;;;;;;5027566;28;20021;-72
2021/06/10 11:15:08;;;;;;;7.07;3.30;;;26.90;99.90;;;;;;5032479;28;20073;-72
2021/06/10 11:17:44;;;;;;;3.78;2.45;;;27.00;99.90;;;;;;5025340;28;20026;-69
2021/06/10 11:20:13;;;;;;;6.00;3.33;;;27.20;99.90;;;;;;5025239;28;20112;-71
2021/06/10 11:22:41;;;;;;;4.32;2.65;;;27.40;99.90;;;;;;5023953;28;20022;-71
2021/06/10 11:25:15;;;;;;;3.83;2.50;;;27.40;99.90;;;;;;5024329;28;20045;-72
2021/06/10 11:27:47;;;;;;;5.35;3.13;;;27.60;99.90;;;;;;5040050;28;20022;-74
2021/06/10 11:30:28;;;;;;;8.65;4.40;;;27.90;99.90;;;;;;5023574;28;20022;-72
2021/06/10 11:33:05;;;;;;;6.05;4.18;;;28.10;99.90;;;;;;5024937;28;20037;-75
2021/06/10 11:35:39;;;;;;;7.75;3.33;;;28.10;99.90;;;;;;5023753;28;20081;-74
2021/06/10 11:38:32;;;;;;;4.65;2.47;;;28.30;99.90;;;;;;5039371;28;20033;-70
2021/06/10 11:41:21;;;;;;;3.63;2.15;;;28.60;99.90;;;;;;5024581;28;20072;-74
2021/06/10 11:43:56;;;;;;;4.85;2.83;;;28.80;99.90;;;;;;5024170;28;20053;-74
2021/06/10 11:46:34;;;;;;;4.28;2.33;;;29.00;99.90;;;;;;5024253;28;20065;-74
2021/06/10 11:48:59;;;;;;;4.05;2.35;;;29.00;99.90;;;;;;5034668;28;20251;-74
2021/06/10 11:51:32;;;;;;;2.65;1.65;;;29.10;99.90;;;;;;5056589;28;20351;-76
2021/06/10 11:54:13;;;;;;;3.33;2.17;;;29.20;99.90;;;;;;5042948;28;20109;-77
2021/06/10 11:56:41;;;;;;;2.50;1.95;;;29.40;99.50;;;;;;5042108;28;20034;-75
2021/06/10 11:59:26;;;;;;;2.05;1.42;;;29.50;99.90;;;;;;5043468;28;20033;-73
2021/06/10 12:01:59;;;;;;;3.20;1.73;;;29.60;96.10;;;;;;5043574;28;20167;-73
2021/06/10 12:04:32;;;;;;;12.02;1.33;;;29.50;99.60;;;;;;5043432;28;20037;-77
2021/06/10 12:07:09;;;;;;;1.67;1.20;;;29.60;96.10;;;;;;5044038;28;20060;-74
2021/06/10 12:09:35;;;;;;;3.40;1.88;;;29.70;97.50;;;;;;5043786;28;20466;-73
2021/06/10 12:12:01;;;;;;;5.60;2.03;;;29.90;97.60;;;;;;5037409;28;20060;-76
2021/06/10 12:14:39;;;;;;;2.47;1.33;;;29.90;98.40;;;;;;5034672;28;20493;-74
2021/06/10 12:17:07;;;;;;;1.60;1.23;;;30.10;96.80;;;;;;5024001;28;20118;-74
2021/06/10 12:19:33;;;;;;;8.38;1.48;;;30.20;98.20;;;;;;5023537;28;20087;-73
2021/06/10 12:22:03;;;;;;;0.95;0.73;;;30.40;95.80;;;;;;5024494;28;20069;-73
2021/06/10 12:24:42;;;;;;;1.00;0.80;;;30.50;94.80;;;;;;5023984;28;20042;-76
2021/06/10 12:27:20;;;;;;;7.13;1.08;;;30.60;93.10;;;;;;5023558;28;20132;-72
2021/06/10 12:29:52;;;;;;;2.78;1.40;;;30.80;94.50;;;;;;5023572;28;20022;-73
2021/06/10 12:32:29;;;;;;;2.65;1.58;;;30.80;92.50;;;;;;5023239;28;20054;-74
2021/06/10 12:34:58;;;;;;;2.10;1.33;;;30.80;93.50;;;;;;5023020;28;20446;-76
2021/06/10 12:37:27;;;;;;;3.78;1.77;;;30.70;94.60;;;;;;5023934;28;20032;-75
2021/06/10 12:40:00;;;;;;;4.82;1.33;;;30.80;94.10;;;;;;5024059;28;20026;-75
2021/06/10 12:42:28;;;;;;;1.13;0.88;;;30.90;94.50;;;;;;5023706;28;20033;-76
2021/06/10 12:44:55;;;;;;;2.22;0.98;;;31.10;93.00;;;;;;5023960;28;20478;-75
2021/06/10 12:47:31;;;;;;;1.48;0.70;;;31.10;93.50;;;;;;5023544;28;20065;-75
2021/06/10 12:49:57;;;;;;;1.40;0.80;;;31.30;90.90;;;;;;5023831;28;20030;-76